sensor_id;sensor_type;location;lat;lon;timestamp;pressure;altitude;pressure_sealevel;temperature;humidity
59829;BME280;45708;51.848;107.620;2024-01-30T00:02:51;96304.56;;;-32.76;63.33
59829;BME280;45708;51.848;107.620;2024-01-30T00:07:52;96291.63;;;-32.91;63.57
59829;BME280;45708;51.848;107.620;2024-01-30T00:12:53;96308.44;;;-32.83;63.62
59829;BME280;45708;51.848;107.620;2024-01-30T00:17:54;96315.66;;;-33.05;63.46
59829;BME280;45708;51.848;107.620;2024-01-30T00:22:55;96327.66;;;-33.13;63.61
59829;BME280;45708;51.848;107.620;2024-01-30T00:27:56;96311.38;;;-33.28;63.41
59829;BME280;45708;51.848;107.620;2024-01-30T00:32:57;96337.66;;;-33.27;63.30
59829;BME280;45708;51.848;107.620;2024-01-30T00:37:57;96298.84;;;-33.34;63.41
59829;BME280;45708;51.848;107.620;2024-01-30T00:42:58;96329.06;;;-33.18;63.39
59829;BME280;45708;51.848;107.620;2024-01-30T00:47:59;96322.41;;;-33.20;63.25
59829;BME280;45708;51.848;107.620;2024-01-30T00:53:00;96321.63;;;-33.19;63.02
59829;BME280;45708;51.848;107.620;2024-01-30T00:58:01;96332.09;;;-33.04;63.34
59829;BME280;45708;51.848;107.620;2024-01-30T01:03:02;96334.97;;;-33.14;63.50
59829;BME280;45708;51.848;107.620;2024-01-30T01:08:03;96343.50;;;-33.06;63.20
59829;BME280;45708;51.848;107.620;2024-01-30T01:13:04;96339.66;;;-33.01;63.49
59829;BME280;45708;51.848;107.620;2024-01-30T01:18:05;96348.91;;;-32.95;63.56
59829;BME280;45708;51.848;107.620;2024-01-30T01:23:06;96336.91;;;-32.88;63.28
59829;BME280;45708;51.848;107.620;2024-01-30T01:28:07;96338.53;;;-32.67;63.32
59829;BME280;45708;51.848;107.620;2024-01-30T01:33:08;96333.41;;;-32.53;63.32
59829;BME280;45708;51.848;107.620;2024-01-30T01:38:09;96332.16;;;-32.43;63.40
59829;BME280;45708;51.848;107.620;2024-01-30T01:43:09;96336.75;;;-32.31;63.16
59829;BME280;45708;51.848;107.620;2024-01-30T01:48:11;96318.97;;;-32.23;63.42
59829;BME280;45708;51.848;107.620;2024-01-30T01:53:12;96325.13;;;-31.92;63.49
59829;BME280;45708;51.848;107.620;2024-01-30T01:58:14;96330.22;;;-31.65;63.35
59829;BME280;45708;51.848;107.620;2024-01-30T02:03:18;96332.22;;;-31.57;63.30
59829;BME280;45708;51.848;107.620;2024-01-30T02:08:18;96334.13;;;-31.27;63.27
59829;BME280;45708;51.848;107.620;2024-01-30T02:13:21;96318.59;;;-31.01;63.30
59829;BME280;45708;51.848;107.620;2024-01-30T02:18:22;96319.34;;;-30.79;63.20
59829;BME280;45708;51.848;107.620;2024-01-30T02:23:24;96331.13;;;-30.72;63.34
59829;BME280;45708;51.848;107.620;2024-01-30T02:28:25;96323.41;;;-30.56;63.36
59829;BME280;45708;51.848;107.620;2024-01-30T02:33:25;96334.28;;;-30.25;63.45
59829;BME280;45708;51.848;107.620;2024-01-30T02:38:26;96325.56;;;-30.16;63.60
59829;BME280;45708;51.848;107.620;2024-01-30T02:43:27;96327.47;;;-29.82;63.53
59829;BME280;45708;51.848;107.620;2024-01-30T02:48:28;96305.78;;;-29.89;63.26
59829;BME280;45708;51.848;107.620;2024-01-30T02:53:29;96328.75;;;-29.66;63.22
59829;BME280;45708;51.848;107.620;2024-01-30T02:58:30;96330.16;;;-29.47;63.47
59829;BME280;45708;51.848;107.620;2024-01-30T03:03:30;96341.47;;;-29.55;63.15
59829;BME280;45708;51.848;107.620;2024-01-30T03:08:31;96336.13;;;-29.68;63.40
59829;BME280;45708;51.848;107.620;2024-01-30T03:13:32;96331.16;;;-29.68;63.00
59829;BME280;45708;51.848;107.620;2024-01-30T03:18:33;96340.03;;;-29.47;63.11
59829;BME280;45708;51.848;107.620;2024-01-30T03:23:34;96335.63;;;-29.29;63.41
59829;BME280;45708;51.848;107.620;2024-01-30T03:28:35;96332.41;;;-29.25;63.04
59829;BME280;45708;51.848;107.620;2024-01-30T03:33:36;96328.00;;;-29.07;63.12
59829;BME280;45708;51.848;107.620;2024-01-30T03:38:37;96316.69;;;-29.27;63.00
59829;BME280;45708;51.848;107.620;2024-01-30T03:43:38;96324.31;;;-29.21;63.21
59829;BME280;45708;51.848;107.620;2024-01-30T03:48:39;96312.97;;;-29.13;63.29
59829;BME280;45708;51.848;107.620;2024-01-30T03:53:59;96321.97;;;-28.86;63.52
59829;BME280;45708;51.848;107.620;2024-01-30T03:59:00;96327.09;;;-28.80;63.54
59829;BME280;45708;51.848;107.620;2024-01-30T04:04:01;96315.97;;;-28.63;63.33
59829;BME280;45708;51.848;107.620;2024-01-30T04:09:02;96321.63;;;-28.37;63.17
59829;BME280;45708;51.848;107.620;2024-01-30T04:14:03;96320.56;;;-28.12;63.32
59829;BME280;45708;51.848;107.620;2024-01-30T04:19:05;96310.97;;;-28.00;63.51
59829;BME280;45708;51.848;107.620;2024-01-30T04:24:06;96291.22;;;-27.59;63.71
59829;BME280;45708;51.848;107.620;2024-01-30T04:29:06;96291.28;;;-27.19;63.13
59829;BME280;45708;51.848;107.620;2024-01-30T04:34:07;96292.13;;;-26.76;63.62
59829;BME280;45708;51.848;107.620;2024-01-30T04:39:08;96278.28;;;-26.15;63.53
59829;BME280;45708;51.848;107.620;2024-01-30T04:44:09;96294.03;;;-25.63;63.50
59829;BME280;45708;51.848;107.620;2024-01-30T04:49:10;96286.78;;;-25.49;63.33
59829;BME280;45708;51.848;107.620;2024-01-30T04:54:11;96284.97;;;-25.59;63.17
59829;BME280;45708;51.848;107.620;2024-01-30T04:59:12;96277.53;;;-25.58;63.08
59829;BME280;45708;51.848;107.620;2024-01-30T05:04:12;96278.72;;;-25.32;63.25
59829;BME280;45708;51.848;107.620;2024-01-30T05:09:13;96279.91;;;-25.05;63.25
59829;BME280;45708;51.848;107.620;2024-01-30T05:14:14;96279.91;;;-25.05;63.42
59829;BME280;45708;51.848;107.620;2024-01-30T05:19:15;96261.03;;;-24.83;63.24
59829;BME280;45708;51.848;107.620;2024-01-30T05:24:16;96268.09;;;-24.52;63.13
59829;BME280;45708;51.848;107.620;2024-01-30T05:29:17;96270.13;;;-24.11;62.86
59829;BME280;45708;51.848;107.620;2024-01-30T05:34:17;96272.06;;;-23.83;62.74
59829;BME280;45708;51.848;107.620;2024-01-30T05:39:21;96271.47;;;-23.50;62.67
59829;BME280;45708;51.848;107.620;2024-01-30T05:44:22;96273.41;;;-23.10;62.73
59829;BME280;45708;51.848;107.620;2024-01-30T05:49:23;96241.72;;;-23.08;62.97
59829;BME280;45708;51.848;107.620;2024-01-30T05:54:27;96250.13;;;-22.99;62.69
59829;BME280;45708;51.848;107.620;2024-01-30T05:59:29;96250.19;;;-22.77;62.75
59829;BME280;45708;51.848;107.620;2024-01-30T06:04:30;96241.13;;;-22.54;63.12
59829;BME280;45708;51.848;107.620;2024-01-30T06:09:31;96229.50;;;-22.25;62.93
59829;BME280;45708;51.848;107.620;2024-01-30T06:14:32;96227.84;;;-22.00;62.77
59829;BME280;45708;51.848;107.620;2024-01-30T06:19:33;96213.66;;;-22.17;62.55
59829;BME280;45708;51.848;107.620;2024-01-30T06:24:33;96220.34;;;-22.16;62.60
59829;BME280;45708;51.848;107.620;2024-01-30T06:29:34;96258.75;;;-22.17;62.67
59829;BME280;45708;51.848;107.620;2024-01-30T06:34:38;96203.59;;;-22.33;62.52
59829;BME280;45708;51.848;107.620;2024-01-30T06:39:39;96208.63;;;-22.33;62.31
59829;BME280;45708;51.848;107.620;2024-01-30T06:44:42;96237.03;;;-22.22;62.17
59829;BME280;45708;51.848;107.620;2024-01-30T06:49:43;96220.34;;;-22.20;62.02
59829;BME280;45708;51.848;107.620;2024-01-30T06:54:44;96229.53;;;-22.09;62.49
59829;BME280;45708;51.848;107.620;2024-01-30T06:59:45;96232.03;;;-21.94;62.21
59829;BME280;45708;51.848;107.620;2024-01-30T07:04:45;96218.69;;;-21.81;61.75
59829;BME280;45708;51.848;107.620;2024-01-30T07:09:46;96221.19;;;-21.53;62.06
59829;BME280;45708;51.848;107.620;2024-01-30T07:14:47;96201.94;;;-21.36;62.06
59829;BME280;45708;51.848;107.620;2024-01-30T07:19:48;96215.19;;;-21.02;62.02
59829;BME280;45708;51.848;107.620;2024-01-30T07:24:49;96202.66;;;-20.95;62.17
59829;BME280;45708;51.848;107.620;2024-01-30T07:29:50;96210.16;;;-20.88;61.81
59829;BME280;45708;51.848;107.620;2024-01-30T07:34:51;96214.34;;;-20.90;61.96
59829;BME280;45708;51.848;107.620;2024-01-30T07:39:52;96206.03;;;-21.02;61.65
59829;BME280;45708;51.848;107.620;2024-01-30T07:44:52;96222.78;;;-21.14;61.79
59829;BME280;45708;51.848;107.620;2024-01-30T07:49:53;96232.03;;;-21.30;61.90
59829;BME280;45708;51.848;107.620;2024-01-30T08:00:32;96235.38;;;-21.37;61.89
59829;BME280;45708;51.848;107.620;2024-01-30T08:05:33;96233.72;;;-21.35;61.93
59829;BME280;45708;51.848;107.620;2024-01-30T08:10:34;96232.03;;;-21.42;61.35
59829;BME280;45708;51.848;107.620;2024-01-30T08:15:36;96210.31;;;-21.65;61.60
59829;BME280;45708;51.848;107.620;2024-01-30T08:20:37;96235.41;;;-21.74;61.67
59829;BME280;45708;51.848;107.620;2024-01-30T08:25:37;96234.56;;;-21.74;61.76
59829;BME280;45708;51.848;107.620;2024-01-30T08:30:38;96223.69;;;-21.93;61.68
59829;BME280;45708;51.848;107.620;2024-01-30T08:35:39;96236.22;;;-22.04;61.89
59829;BME280;45708;51.848;107.620;2024-01-30T08:40:42;96237.06;;;-22.09;61.43
59829;BME280;45708;51.848;107.620;2024-01-30T08:45:43;96245.38;;;-22.23;61.96
59829;BME280;45708;51.848;107.620;2024-01-30T08:50:44;96241.97;;;-22.49;61.40
59829;BME280;45708;51.848;107.620;2024-01-30T08:55:48;96254.44;;;-22.60;61.31
59829;BME280;45708;51.848;107.620;2024-01-30T09:00:52;96260.25;;;-22.68;61.86
59829;BME280;45708;51.848;107.620;2024-01-30T09:05:55;96251.06;;;-22.82;61.90
59829;BME280;45708;51.848;107.620;2024-01-30T09:10:56;96258.50;;;-22.91;61.48
59829;BME280;45708;51.848;107.620;2024-01-30T09:15:57;96257.59;;;-23.03;61.09
59829;BME280;45708;51.848;107.620;2024-01-30T09:20:58;96224.81;;;-23.45;61.35
59829;BME280;45708;51.848;107.620;2024-01-30T09:25:59;96264.91;;;-23.38;61.83
59829;BME280;45708;51.848;107.620;2024-01-30T09:31:00;96268.94;;;-23.53;61.41
59829;BME280;45708;51.848;107.620;2024-01-30T09:36:01;96263.03;;;-23.67;61.36
59829;BME280;45708;51.848;107.620;2024-01-30T09:41:03;96273.03;;;-23.67;62.16
59829;BME280;45708;51.848;107.620;2024-01-30T09:46:11;96272.88;;;-23.82;61.89
59829;BME280;45708;51.848;107.620;2024-01-30T09:51:14;96275.34;;;-23.88;61.88
59829;BME280;45708;51.848;107.620;2024-01-30T09:56:16;96296.09;;;-23.95;61.82
59829;BME280;45708;51.848;107.620;2024-01-30T10:01:17;96299.34;;;-24.02;61.82
59829;BME280;45708;51.848;107.620;2024-01-30T10:06:19;96280.91;;;-24.17;61.99
59829;BME280;45708;51.848;107.620;2024-01-30T10:11:20;96295.97;;;-24.09;61.89
59829;BME280;45708;51.848;107.620;2024-01-30T10:16:21;96295.09;;;-24.14;61.91
59829;BME280;45708;51.848;107.620;2024-01-30T10:21:22;96294.19;;;-24.21;61.89
59829;BME280;45708;51.848;107.620;2024-01-30T10:26:23;96300.78;;;-24.26;62.05
59829;BME280;45708;51.848;107.620;2024-01-30T10:31:24;96299.88;;;-24.35;62.11
59829;BME280;45708;51.848;107.620;2024-01-30T10:36:29;96288.09;;;-24.47;62.23
59829;BME280;45708;51.848;107.620;2024-01-30T10:41:31;96292.22;;;-24.49;62.44
59829;BME280;45708;51.848;107.620;2024-01-30T10:46:38;96328.16;;;-24.37;62.10
59829;BME280;45708;51.848;107.620;2024-01-30T10:51:41;96306.34;;;-24.51;62.55
59829;BME280;45708;51.848;107.620;2024-01-30T10:56:43;96323.00;;;-24.49;62.45
59829;BME280;45708;51.848;107.620;2024-01-30T11:01:45;96340.47;;;-24.49;62.11
59829;BME280;45708;51.848;107.620;2024-01-30T11:06:49;96328.72;;;-24.60;62.49
59829;BME280;45708;51.848;107.620;2024-01-30T11:11:57;96348.72;;;-24.56;62.39
59829;BME280;45708;51.848;107.620;2024-01-30T11:16:59;96341.88;;;-24.69;62.39
59829;BME280;45708;51.848;107.620;2024-01-30T11:22:00;96349.38;;;-24.69;62.62
59829;BME280;45708;51.848;107.620;2024-01-30T11:27:03;96366.75;;;-24.77;62.29
59829;BME280;45708;51.848;107.620;2024-01-30T11:32:08;96365.88;;;-24.79;62.56
59829;BME280;45708;51.848;107.620;2024-01-30T11:37:10;96374.06;;;-24.87;62.64
59829;BME280;45708;51.848;107.620;2024-01-30T11:42:13;96368.97;;;-24.96;62.46
59829;BME280;45708;51.848;107.620;2024-01-30T11:47:16;96375.63;;;-24.94;62.73
59829;BME280;45708;51.848;107.620;2024-01-30T11:52:17;96373.13;;;-24.98;62.75
59829;BME280;45708;51.848;107.620;2024-01-30T11:57:18;96378.84;;;-25.04;62.57
59829;BME280;45708;51.848;107.620;2024-01-30T12:02:19;96374.63;;;-25.08;62.74
59829;BME280;45708;51.848;107.620;2024-01-30T12:07:20;96380.38;;;-25.14;62.78
59829;BME280;45708;51.848;107.620;2024-01-30T12:12:29;96386.00;;;-25.25;63.07
59829;BME280;45708;51.848;107.620;2024-01-30T12:17:32;96375.19;;;-25.26;62.92
59829;BME280;45708;51.848;107.620;2024-01-30T12:22:39;96382.63;;;-25.29;63.02
59829;BME280;45708;51.848;107.620;2024-01-30T12:27:43;96388.38;;;-25.32;62.70
59829;BME280;45708;51.848;107.620;2024-01-30T12:32:49;96379.06;;;-25.43;63.01
59829;BME280;45708;51.848;107.620;2024-01-30T12:37:54;96382.34;;;-25.46;63.00
59829;BME280;45708;51.848;107.620;2024-01-30T12:42:57;96373.97;;;-25.51;62.98
59829;BME280;45708;51.848;107.620;2024-01-30T12:47:58;96375.63;;;-25.50;63.23
59829;BME280;45708;51.848;107.620;2024-01-30T12:52:59;96374.78;;;-25.52;63.01
59829;BME280;45708;51.848;107.620;2024-01-30T12:57:59;96362.19;;;-25.61;63.32
59829;BME280;45708;51.848;107.620;2024-01-30T13:03:00;96372.19;;;-25.58;63.18
59829;BME280;45708;51.848;107.620;2024-01-30T13:08:02;96372.00;;;-25.70;63.05
59829;BME280;45708;51.848;107.620;2024-01-30T13:13:02;96381.97;;;-25.70;63.12
59829;BME280;45708;51.848;107.620;2024-01-30T13:18:03;96389.28;;;-25.79;63.33
59829;BME280;45708;51.848;107.620;2024-01-30T13:23:04;96399.94;;;-25.86;63.18
59829;BME280;45708;51.848;107.620;2024-01-30T13:28:05;96401.41;;;-25.98;63.32
59829;BME280;45708;51.848;107.620;2024-01-30T13:33:06;96402.88;;;-26.06;63.18
59829;BME280;45708;51.848;107.620;2024-01-30T13:38:09;96390.31;;;-26.13;63.42
59829;BME280;45708;51.848;107.620;2024-01-30T13:49:07;96400.78;;;-26.28;63.33
59829;BME280;45708;51.848;107.620;2024-01-30T13:54:08;96398.16;;;-26.39;63.62
59829;BME280;45708;51.848;107.620;2024-01-30T13:59:09;96405.59;;;-26.40;62.97
59829;BME280;45708;51.848;107.620;2024-01-30T14:04:09;96425.38;;;-26.45;63.36
59829;BME280;45708;51.848;107.620;2024-01-30T14:09:10;96422.78;;;-26.49;63.15
59829;BME280;45708;51.848;107.620;2024-01-30T14:14:12;96422.63;;;-26.57;63.49
59829;BME280;45708;51.848;107.620;2024-01-30T14:19:14;96424.81;;;-26.71;63.36
59829;BME280;45708;51.848;107.620;2024-01-30T14:24:15;96441.25;;;-26.77;63.37
59829;BME280;45708;51.848;107.620;2024-01-30T14:29:16;96434.47;;;-26.83;63.55
59829;BME280;45708;51.848;107.620;2024-01-30T14:34:16;96438.47;;;-26.91;63.22
59829;BME280;45708;51.848;107.620;2024-01-30T14:39:17;96430.03;;;-26.98;63.27
59829;BME280;45708;51.848;107.620;2024-01-30T14:44:18;96435.00;;;-26.99;63.48
59829;BME280;45708;51.848;107.620;2024-01-30T14:49:19;96432.47;;;-27.01;63.41
59829;BME280;45708;51.848;107.620;2024-01-30T14:54:20;96420.47;;;-27.19;63.62
59829;BME280;45708;51.848;107.620;2024-01-30T14:59:20;96446.25;;;-27.13;63.83
59829;BME280;45708;51.848;107.620;2024-01-30T15:04:21;96443.00;;;-27.11;63.54
59829;BME280;45708;51.848;107.620;2024-01-30T15:09:22;96453.72;;;-27.13;63.71
59829;BME280;45708;51.848;107.620;2024-01-30T15:14:23;96442.09;;;-27.14;63.62
59829;BME280;45708;51.848;107.620;2024-01-30T15:19:24;96444.50;;;-27.18;63.56
59829;BME280;45708;51.848;107.620;2024-01-30T15:24:25;96440.19;;;-27.25;63.80
59829;BME280;45708;51.848;107.620;2024-01-30T15:29:26;96428.34;;;-27.35;63.56
59829;BME280;45708;51.848;107.620;2024-01-30T15:34:26;96430.53;;;-27.47;63.47
59829;BME280;45708;51.848;107.620;2024-01-30T15:39:27;96361.31;;;-28.02;63.62
59829;BME280;45708;51.848;107.620;2024-01-30T15:44:28;96450.28;;;-27.52;63.59
59829;BME280;45708;51.848;107.620;2024-01-30T15:49:29;96455.97;;;-27.57;63.51
59829;BME280;45708;51.848;107.620;2024-01-30T15:54:30;96440.69;;;-27.72;63.90
59829;BME280;45708;51.848;107.620;2024-01-30T15:59:34;96457.34;;;-27.68;63.89
59829;BME280;45708;51.848;107.620;2024-01-30T16:04:35;96468.06;;;-27.69;63.95
59829;BME280;45708;51.848;107.620;2024-01-30T16:09:36;96472.25;;;-27.68;63.67
59829;BME280;45708;51.848;107.620;2024-01-30T16:14:37;96461.91;;;-27.84;63.81
59829;BME280;45708;51.848;107.620;2024-01-30T16:19:37;96485.16;;;-27.82;63.79
59829;BME280;45708;51.848;107.620;2024-01-30T16:24:38;96485.81;;;-27.87;63.86
59829;BME280;45708;51.848;107.620;2024-01-30T16:29:39;96482.13;;;-28.01;63.89
59829;BME280;45708;51.848;107.620;2024-01-30T16:34:40;96491.94;;;-28.04;63.99
59829;BME280;45708;51.848;107.620;2024-01-30T16:39:41;96480.16;;;-28.13;63.84
59829;BME280;45708;51.848;107.620;2024-01-30T16:44:42;96487.50;;;-28.16;63.87
59829;BME280;45708;51.848;107.620;2024-01-30T16:49:43;96487.34;;;-28.22;64.00
59829;BME280;45708;51.848;107.620;2024-01-30T16:54:44;96492.34;;;-28.21;63.70
59829;BME280;45708;51.848;107.620;2024-01-30T16:59:45;96493.75;;;-28.30;63.79
59829;BME280;45708;51.848;107.620;2024-01-30T17:04:45;96506.97;;;-28.30;64.01
59829;BME280;45708;51.848;107.620;2024-01-30T17:09:46;96505.34;;;-28.29;63.98
59829;BME280;45708;51.848;107.620;2024-01-30T17:14:47;96495.09;;;-28.42;64.17
59829;BME280;45708;51.848;107.620;2024-01-30T17:19:48;96504.94;;;-28.43;63.96
59829;BME280;45708;51.848;107.620;2024-01-30T17:24:49;96503.28;;;-28.43;64.01
59829;BME280;45708;51.848;107.620;2024-01-30T17:29:49;96516.41;;;-28.47;63.87
59829;BME280;45708;51.848;107.620;2024-01-30T17:34:50;96471.06;;;-28.71;63.97
59829;BME280;45708;51.848;107.620;2024-01-30T17:39:54;96480.72;;;-28.80;64.05
59829;BME280;45708;51.848;107.620;2024-01-30T17:44:55;96511.28;;;-28.80;64.08
59829;BME280;45708;51.848;107.620;2024-01-30T17:49:59;96515.41;;;-28.80;64.15
59829;BME280;45708;51.848;107.620;2024-01-30T17:55:00;96514.69;;;-28.76;64.00
59829;BME280;45708;51.848;107.620;2024-01-30T18:00:01;96526.72;;;-28.61;64.01
59829;BME280;45708;51.848;107.620;2024-01-30T18:05:02;96490.38;;;-28.89;64.11
59829;BME280;45708;51.848;107.620;2024-01-30T18:10:03;96525.50;;;-28.74;64.14
59829;BME280;45708;51.848;107.620;2024-01-30T18:15:04;96502.03;;;-28.85;64.04
59829;BME280;45708;51.848;107.620;2024-01-30T18:20:05;96522.13;;;-28.76;63.90
59829;BME280;45708;51.848;107.620;2024-01-30T18:25:07;96533.03;;;-28.71;63.96
59829;BME280;45708;51.848;107.620;2024-01-30T18:30:08;96491.88;;;-28.94;64.31
59829;BME280;45708;51.848;107.620;2024-01-30T18:35:09;96544.56;;;-28.72;64.01
59829;BME280;45708;51.848;107.620;2024-01-30T18:40:10;96548.50;;;-28.78;63.78
59829;BME280;45708;51.848;107.620;2024-01-30T18:45:11;96540.91;;;-28.83;63.92
59829;BME280;45708;51.848;107.620;2024-01-30T18:50:12;96540.19;;;-28.80;64.40
59829;BME280;45708;51.848;107.620;2024-01-30T18:55:13;96549.50;;;-28.73;63.84
59829;BME280;45708;51.848;107.620;2024-01-30T19:00:14;96532.22;;;-28.70;64.25
59829;BME280;45708;51.848;107.620;2024-01-30T19:05:15;96537.19;;;-28.70;64.30
59829;BME280;45708;51.848;107.620;2024-01-30T19:10:17;96538.06;;;-28.68;64.24
59829;BME280;45708;51.848;107.620;2024-01-30T19:15:18;96543.03;;;-28.68;64.24
59829;BME280;45708;51.848;107.620;2024-01-30T19:20:19;96543.06;;;-28.66;64.29
59829;BME280;45708;51.848;107.620;2024-01-30T19:25:19;96562.16;;;-28.64;63.87
59829;BME280;45708;51.848;107.620;2024-01-30T19:30:20;96560.47;;;-28.65;64.08
59829;BME280;45708;51.848;107.620;2024-01-30T19:35:21;96567.00;;;-28.67;64.28
59829;BME280;45708;51.848;107.620;2024-01-30T19:40:22;96557.50;;;-28.82;64.12
59829;BME280;45708;51.848;107.620;2024-01-30T19:45:23;96575.06;;;-28.74;64.24
59829;BME280;45708;51.848;107.620;2024-01-30T19:50:24;96470.50;;;-29.43;64.09
59829;BME280;45708;51.848;107.620;2024-01-30T19:55:25;96555.34;;;-28.98;64.21
59829;BME280;45708;51.848;107.620;2024-01-30T20:00:26;96568.56;;;-28.97;64.14
59829;BME280;45708;51.848;107.620;2024-01-30T20:05:26;96571.75;;;-29.01;64.25
59829;BME280;45708;51.848;107.620;2024-01-30T20:10:27;96559.84;;;-29.12;64.23
59829;BME280;45708;51.848;107.620;2024-01-30T20:15:28;96550.44;;;-29.22;64.43
59829;BME280;45708;51.848;107.620;2024-01-30T20:20:29;96562.13;;;-29.18;64.44
59829;BME280;45708;51.848;107.620;2024-01-30T20:25:29;96562.56;;;-29.29;63.96
59829;BME280;45708;51.848;107.620;2024-01-30T20:30:31;96566.47;;;-29.36;64.19
59829;BME280;45708;51.848;107.620;2024-01-30T20:35:32;96569.50;;;-29.43;64.25
59829;BME280;45708;51.848;107.620;2024-01-30T20:40:33;96568.50;;;-29.50;64.19
59829;BME280;45708;51.848;107.620;2024-01-30T20:45:34;96579.03;;;-29.55;64.32
59829;BME280;45708;51.848;107.620;2024-01-30T20:50:35;96572.81;;;-29.68;64.42
59829;BME280;45708;51.848;107.620;2024-01-30T20:55:35;96574.94;;;-29.79;64.10
59829;BME280;45708;51.848;107.620;2024-01-30T21:00:36;96583.50;;;-29.69;64.15
59829;BME280;45708;51.848;107.620;2024-01-30T21:05:37;96582.13;;;-29.85;64.02
59829;BME280;45708;51.848;107.620;2024-01-30T21:10:38;96590.44;;;-29.83;64.11
59829;BME280;45708;51.848;107.620;2024-01-30T21:15:39;96579.13;;;-30.00;63.96
59829;BME280;45708;51.848;107.620;2024-01-30T21:20:40;96586.06;;;-29.90;63.88
59829;BME280;45708;51.848;107.620;2024-01-30T21:25:40;96596.41;;;-29.78;64.18
59829;BME280;45708;51.848;107.620;2024-01-30T21:30:41;96595.63;;;-29.77;64.37
59829;BME280;45708;51.848;107.620;2024-01-30T21:35:42;96598.19;;;-29.74;64.31
59829;BME280;45708;51.848;107.620;2024-01-30T21:40:43;96586.63;;;-29.75;64.40
59829;BME280;45708;51.848;107.620;2024-01-30T21:45:44;96597.31;;;-29.76;64.16
59829;BME280;45708;51.848;107.620;2024-01-30T21:50:44;96596.41;;;-29.78;64.13
59829;BME280;45708;51.848;107.620;2024-01-30T21:55:45;96523.34;;;-30.16;64.72
59829;BME280;45708;51.848;107.620;2024-01-30T22:00:46;96581.78;;;-29.72;64.36
59829;BME280;45708;51.848;107.620;2024-01-30T22:05:47;96604.63;;;-29.79;64.35
59829;BME280;45708;51.848;107.620;2024-01-30T22:10:48;96610.94;;;-30.32;63.88
59829;BME280;45708;51.848;107.620;2024-01-30T22:15:49;96612.59;;;-30.96;64.12
59829;BME280;45708;51.848;107.620;2024-01-30T22:20:49;96624.53;;;-31.26;63.83
59829;BME280;45708;51.848;107.620;2024-01-30T22:25:50;96629.38;;;-31.48;63.98
59829;BME280;45708;51.848;107.620;2024-01-30T22:30:51;96608.50;;;-31.76;63.70
59829;BME280;45708;51.848;107.620;2024-01-30T22:35:52;96629.59;;;-31.82;63.72
59829;BME280;45708;51.848;107.620;2024-01-30T22:40:52;96637.50;;;-31.90;63.84
59829;BME280;45708;51.848;107.620;2024-01-30T22:45:53;96618.59;;;-32.08;63.58
59829;BME280;45708;51.848;107.620;2024-01-30T22:50:54;96637.41;;;-31.91;63.69
59829;BME280;45708;51.848;107.620;2024-01-30T22:55:55;96640.28;;;-32.01;63.86
59829;BME280;45708;51.848;107.620;2024-01-30T23:00:55;96636.47;;;-32.12;63.99
59829;BME280;45708;51.848;107.620;2024-01-30T23:05:56;96656.84;;;-32.17;63.52
59829;BME280;45708;51.848;107.620;2024-01-30T23:10:57;96661.09;;;-32.32;63.54
59829;BME280;45708;51.848;107.620;2024-01-30T23:15:58;96553.09;;;-32.97;63.49
59829;BME280;45708;51.848;107.620;2024-01-30T23:20:59;96653.84;;;-32.29;63.73
59829;BME280;45708;51.848;107.620;2024-01-30T23:26:00;96655.94;;;-32.19;63.78
59829;BME280;45708;51.848;107.620;2024-01-30T23:31:00;96650.28;;;-32.16;63.32
59829;BME280;45708;51.848;107.620;2024-01-30T23:36:01;96663.38;;;-31.99;63.60
59829;BME280;45708;51.848;107.620;2024-01-30T23:41:02;96666.44;;;-32.03;63.70
59829;BME280;45708;51.848;107.620;2024-01-30T23:46:03;96677.88;;;-32.05;63.76
59829;BME280;45708;51.848;107.620;2024-01-30T23:51:04;96672.94;;;-32.05;63.71
59829;BME280;45708;51.848;107.620;2024-01-30T23:56:05;96679.25;;;-31.93;63.89
